Portada
METAR-TAF:

METAR-TAF

Aeropuertos :

Aeropuerto de Gerona

Gerona, España

latitud: 41-54N, longitud: 002-46E, altitud: 143 m

Observación

El informe se hizo hace 30 minutos, a las 13:30 UTC
Viento 2 kt con dirección variable
Temperatura 19°C
Humedad 37%
Presión 1028 hPa
Visibilidad 10 km o más
sin nubes por debajo de 1500 m y sin presencia de cumulonimbus.

METAR: LEGE 031330Z VRB02KT CAVOK 19/04 Q1028

Hora: 15:00 (14:00 UTC)

Pronóstico

El informe se hizo hace 3 horas y 0 minutos, a las 11:00 UTC
Pronóstico válido del 03 a las 12 UTC al 04 a las 12 UTC
Viento 8 kt del sur
Visibilidad 10 km o más
sin nubes por debajo de 1500 m y sin presencia de cumulonimbus.
Evolucionando progresivamente
del 03 a las 16 UTC al 03 a las 18 UTC
Viento 4 kt con dirección variable

TAF: LEGE 031100Z 0312/0412 17008KT CAVOK TX17/0313Z TNM01/0407Z BECMG 0316/0318 VRB04KT

Observaciones y pronósticos meteorológicos de más de 4000 aeropuertos (mensajes METAR y TAF).

Los puntos amarillos y rojos representan las estaciones disponibles.

Ponga el ratón en el punto deseado para ver el nombre de la estación.

Haga clic para ver las observaciones y los pronósticos meteorológicos.

Para cambiar el mapa : haga clic en los botones verdes con una cruz de color negro para hacer un zoom, en el botón verde con un guión para alejar o en las flechas verdes para mapas adyacentes.


METAR-TAF: